Forside
METAR-TAF:

METAR-TAF

Lufthavne :

Cairns, Australien

Breddekreds: 16-53S, længdekreds: 145-45E, højde: 3 m

Aktuelle vejr

Denne rapport blev lavet for 19 minutter siden, kl. 02:00 UTC
Vind 11 kt fra øst
Temperatur 31°C
Fugtighed 46%
Tryk 1012 hPa
Sigt 10 km eller mere
Nogle få skyer i en højde af 4200 ft

METAR: YBCS 170200Z 10011KT 9999 FEW042 31/18 Q1012 NOSIG

Tid: 12:19 (02:19 UTC)

Vejrudsigter

Denne rapport blev lavet for 3 timer og 13 minutter siden, kl. 23:06 UTC
Foreløbig gælder fra 17 på 00 UTC til 17 på 24 UTC
Vind 14 kt fra øst
Sigt 10 km eller mere
Nogle få skyer i en højde af 3500 ft
Fra 17 på 0800 UTC
Vind 8 kt fra sydøst
Sigt 10 km eller mere
Nogle få skyer i en højde af 2500 ft

TAF: YBCS 162306Z 1700/1724 10014KT 9999 FEW035 FM170800 14008KT 9999 FEW025

Vejrobservationer og prognoser fra mere end 4000 lufthavne (METAR og TAF).

De gule og røde prikker repræsenterer de meteorologiske stationer.

Flyt musen over at se navnet på stationen.

Så klik over at se vejr observationer og prognoser.

At skifte det kort: Klik på de grønne knapper med et sort kors for at zoome ind; på den grønne knap med en bindestreg for at zoome ud; eller på de grønne pile for tilstødende kort.


METAR-TAF: